sensor_id;sensor_type;location;lat;lon;timestamp;temperature;humidity
326;DHT22;150;52.352;14.058;2023-05-25T00:01:02;13.20;30.40
326;DHT22;150;52.352;14.058;2023-05-25T00:03:35;13.20;30.40
326;DHT22;150;52.352;14.058;2023-05-25T00:06:05;13.10;30.60
326;DHT22;150;52.352;14.058;2023-05-25T00:08:56;13.20;30.80
326;DHT22;150;52.352;14.058;2023-05-25T00:11:24;13.10;30.60
326;DHT22;150;52.352;14.058;2023-05-25T00:13:52;13.10;31.10
326;DHT22;150;52.352;14.058;2023-05-25T00:16:24;13.10;31.20
326;DHT22;150;52.352;14.058;2023-05-25T00:18:51;13.10;30.60
326;DHT22;150;52.352;14.058;2023-05-25T00:21:21;13.10;31.10
326;DHT22;150;52.352;14.058;2023-05-25T00:23:48;13.10;31.30
326;DHT22;150;52.352;14.058;2023-05-25T00:26:16;13.00;31.00
326;DHT22;150;52.352;14.058;2023-05-25T00:28:43;13.00;31.10
326;DHT22;150;52.352;14.058;2023-05-25T00:31:10;13.00;31.20
326;DHT22;150;52.352;14.058;2023-05-25T00:33:37;13.00;31.50
326;DHT22;150;52.352;14.058;2023-05-25T00:36:04;12.90;31.40
326;DHT22;150;52.352;14.058;2023-05-25T00:38:31;12.90;31.70
326;DHT22;150;52.352;14.058;2023-05-25T00:40:58;12.90;31.40
326;DHT22;150;52.352;14.058;2023-05-25T00:43:26;12.90;31.90
326;DHT22;150;52.352;14.058;2023-05-25T00:45:54;12.90;32.10
326;DHT22;150;52.352;14.058;2023-05-25T00:48:21;12.90;32.10
326;DHT22;150;52.352;14.058;2023-05-25T00:50:53;12.90;32.00
326;DHT22;150;52.352;14.058;2023-05-25T00:53:22;12.90;32.40
326;DHT22;150;52.352;14.058;2023-05-25T00:56:02;12.80;32.40
326;DHT22;150;52.352;14.058;2023-05-25T00:58:32;12.80;32.30
326;DHT22;150;52.352;14.058;2023-05-25T01:01:00;12.80;32.30
326;DHT22;150;52.352;14.058;2023-05-25T01:03:33;12.80;32.40
326;DHT22;150;52.352;14.058;2023-05-25T01:06:03;12.80;32.70
326;DHT22;150;52.352;14.058;2023-05-25T01:08:33;12.80;33.20
326;DHT22;150;52.352;14.058;2023-05-25T01:11:07;12.80;33.40
326;DHT22;150;52.352;14.058;2023-05-25T01:13:44;12.80;33.20
326;DHT22;150;52.352;14.058;2023-05-25T01:16:14;12.90;33.60
326;DHT22;150;52.352;14.058;2023-05-25T01:18:42;13.20;33.90
326;DHT22;150;52.352;14.058;2023-05-25T01:21:14;13.00;33.30
326;DHT22;150;52.352;14.058;2023-05-25T01:23:52;13.10;33.60
326;DHT22;150;52.352;14.058;2023-05-25T01:26:22;13.10;33.40
326;DHT22;150;52.352;14.058;2023-05-25T01:28:52;13.00;32.80
326;DHT22;150;52.352;14.058;2023-05-25T01:31:25;13.10;33.00
326;DHT22;150;52.352;14.058;2023-05-25T01:34:01;13.10;32.90
326;DHT22;150;52.352;14.058;2023-05-25T01:40:03;13.20;32.90
326;DHT22;150;52.352;14.058;2023-05-25T01:54:06;13.00;32.60
326;DHT22;150;52.352;14.058;2023-05-25T02:01:13;12.90;33.30
326;DHT22;150;52.352;14.058;2023-05-25T02:03:54;12.80;33.00
326;DHT22;150;52.352;14.058;2023-05-25T02:06:42;12.80;33.40
326;DHT22;150;52.352;14.058;2023-05-25T02:12:48;12.70;34.10
326;DHT22;150;52.352;14.058;2023-05-25T02:15:20;12.70;33.60
326;DHT22;150;52.352;14.058;2023-05-25T02:17:53;12.70;33.70
326;DHT22;150;52.352;14.058;2023-05-25T02:20:22;12.60;33.70
326;DHT22;150;52.352;14.058;2023-05-25T02:23:03;12.60;34.20
326;DHT22;150;52.352;14.058;2023-05-25T02:25:42;12.60;34.20
326;DHT22;150;52.352;14.058;2023-05-25T02:28:10;12.50;34.10
326;DHT22;150;52.352;14.058;2023-05-25T02:30:36;12.40;34.60
326;DHT22;150;52.352;14.058;2023-05-25T02:33:03;12.40;34.10
326;DHT22;150;52.352;14.058;2023-05-25T02:35:30;12.40;34.60
326;DHT22;150;52.352;14.058;2023-05-25T02:37:59;12.30;34.60
326;DHT22;150;52.352;14.058;2023-05-25T02:40:26;12.30;34.50
326;DHT22;150;52.352;14.058;2023-05-25T02:42:55;12.30;34.50
326;DHT22;150;52.352;14.058;2023-05-25T02:45:32;12.30;34.20
326;DHT22;150;52.352;14.058;2023-05-25T02:48:29;12.20;34.40
326;DHT22;150;52.352;14.058;2023-05-25T02:51:18;12.20;34.40
326;DHT22;150;52.352;14.058;2023-05-25T02:53:57;12.10;34.70
326;DHT22;150;52.352;14.058;2023-05-25T02:56:24;12.60;34.90
326;DHT22;150;52.352;14.058;2023-05-25T02:58:52;12.10;34.30
326;DHT22;150;52.352;14.058;2023-05-25T03:01:21;12.10;34.30
326;DHT22;150;52.352;14.058;2023-05-25T03:03:50;12.00;34.20
326;DHT22;150;52.352;14.058;2023-05-25T03:06:24;12.00;34.40
326;DHT22;150;52.352;14.058;2023-05-25T03:09:01;12.00;34.20
326;DHT22;150;52.352;14.058;2023-05-25T03:11:29;12.00;34.60
326;DHT22;150;52.352;14.058;2023-05-25T03:13:56;11.90;34.10
326;DHT22;150;52.352;14.058;2023-05-25T03:16:32;11.90;34.10
326;DHT22;150;52.352;14.058;2023-05-25T03:19:00;11.90;34.10
326;DHT22;150;52.352;14.058;2023-05-25T03:21:34;12.00;34.30
326;DHT22;150;52.352;14.058;2023-05-25T03:24:21;12.00;34.30
326;DHT22;150;52.352;14.058;2023-05-25T03:27:23;12.00;34.30
326;DHT22;150;52.352;14.058;2023-05-25T03:29:53;12.00;34.60
326;DHT22;150;52.352;14.058;2023-05-25T03:32:51;12.00;34.70
326;DHT22;150;52.352;14.058;2023-05-25T03:35:56;12.00;34.60
326;DHT22;150;52.352;14.058;2023-05-25T03:39:12;12.10;34.30
326;DHT22;150;52.352;14.058;2023-05-25T03:41:50;12.00;34.40
326;DHT22;150;52.352;14.058;2023-05-25T03:44:27;12.30;35.10
326;DHT22;150;52.352;14.058;2023-05-25T03:47:08;12.80;34.20
326;DHT22;150;52.352;14.058;2023-05-25T03:49:45;13.30;31.90
326;DHT22;150;52.352;14.058;2023-05-25T03:52:15;13.70;30.60
326;DHT22;150;52.352;14.058;2023-05-25T03:55:06;14.20;29.60
326;DHT22;150;52.352;14.058;2023-05-25T03:57:49;14.90;28.40
326;DHT22;150;52.352;14.058;2023-05-25T04:00:39;15.80;26.50
326;DHT22;150;52.352;14.058;2023-05-25T04:03:07;16.60;24.70
326;DHT22;150;52.352;14.058;2023-05-25T04:06:01;17.30;23.50
326;DHT22;150;52.352;14.058;2023-05-25T04:08:58;17.60;22.10
326;DHT22;150;52.352;14.058;2023-05-25T04:11:53;18.10;21.70
326;DHT22;150;52.352;14.058;2023-05-25T04:14:35;18.80;21.00
326;DHT22;150;52.352;14.058;2023-05-25T04:17:24;19.60;19.80
326;DHT22;150;52.352;14.058;2023-05-25T04:20:15;20.40;18.40
326;DHT22;150;52.352;14.058;2023-05-25T04:22:59;21.20;16.80
326;DHT22;150;52.352;14.058;2023-05-25T04:25:37;22.20;16.20
326;DHT22;150;52.352;14.058;2023-05-25T04:28:42;22.40;14.10
326;DHT22;150;52.352;14.058;2023-05-25T04:31:32;23.20;13.80
326;DHT22;150;52.352;14.058;2023-05-25T04:34:20;23.80;13.00
326;DHT22;150;52.352;14.058;2023-05-25T04:36:57;24.10;12.00
326;DHT22;150;52.352;14.058;2023-05-25T04:39:50;24.70;11.90
326;DHT22;150;52.352;14.058;2023-05-25T04:42:51;24.30;11.50
326;DHT22;150;52.352;14.058;2023-05-25T04:45:40;23.80;11.40
326;DHT22;150;52.352;14.058;2023-05-25T04:48:25;22.80;12.40
326;DHT22;150;52.352;14.058;2023-05-25T04:50:57;21.60;13.60
326;DHT22;150;52.352;14.058;2023-05-25T04:53:52;20.80;15.30
326;DHT22;150;52.352;14.058;2023-05-25T04:56:37;20.00;16.70
326;DHT22;150;52.352;14.058;2023-05-25T04:59:06;19.60;18.30
326;DHT22;150;52.352;14.058;2023-05-25T05:01:38;19.40;19.20
326;DHT22;150;52.352;14.058;2023-05-25T05:04:11;19.00;19.80
326;DHT22;150;52.352;14.058;2023-05-25T05:06:40;18.70;20.40
326;DHT22;150;52.352;14.058;2023-05-25T05:09:07;18.40;20.80
326;DHT22;150;52.352;14.058;2023-05-25T05:11:36;18.20;21.90
326;DHT22;150;52.352;14.058;2023-05-25T05:14:03;18.50;22.60
326;DHT22;150;52.352;14.058;2023-05-25T05:16:29;17.70;22.60
326;DHT22;150;52.352;14.058;2023-05-25T05:18:59;17.50;23.40
326;DHT22;150;52.352;14.058;2023-05-25T05:21:33;17.40;24.00
326;DHT22;150;52.352;14.058;2023-05-25T05:23:59;17.30;24.00
326;DHT22;150;52.352;14.058;2023-05-25T05:26:26;17.20;24.50
326;DHT22;150;52.352;14.058;2023-05-25T05:29:11;17.10;24.60
326;DHT22;150;52.352;14.058;2023-05-25T05:31:41;17.20;25.00
326;DHT22;150;52.352;14.058;2023-05-25T05:34:17;17.10;24.60
326;DHT22;150;52.352;14.058;2023-05-25T05:36:52;16.80;24.90
326;DHT22;150;52.352;14.058;2023-05-25T05:39:48;16.70;25.00
326;DHT22;150;52.352;14.058;2023-05-25T05:42:42;16.80;25.80
326;DHT22;150;52.352;14.058;2023-05-25T05:45:33;16.80;25.60
326;DHT22;150;52.352;14.058;2023-05-25T05:48:00;17.00;25.00
326;DHT22;150;52.352;14.058;2023-05-25T05:50:29;17.10;25.00
326;DHT22;150;52.352;14.058;2023-05-25T05:52:59;17.20;24.90
326;DHT22;150;52.352;14.058;2023-05-25T05:55:26;17.20;24.20
326;DHT22;150;52.352;14.058;2023-05-25T05:57:53;17.10;24.40
326;DHT22;150;52.352;14.058;2023-05-25T06:00:25;17.00;24.00
326;DHT22;150;52.352;14.058;2023-05-25T06:03:26;16.70;24.60
326;DHT22;150;52.352;14.058;2023-05-25T06:06:48;16.60;25.40
326;DHT22;150;52.352;14.058;2023-05-25T06:09:15;17.20;26.30
326;DHT22;150;52.352;14.058;2023-05-25T06:12:08;16.80;26.10
326;DHT22;150;52.352;14.058;2023-05-25T06:15:18;17.20;26.70
326;DHT22;150;52.352;14.058;2023-05-25T06:18:23;17.50;26.10
326;DHT22;150;52.352;14.058;2023-05-25T06:28:35;18.80;22.90
326;DHT22;150;52.352;14.058;2023-05-25T06:31:50;19.10;22.90
326;DHT22;150;52.352;14.058;2023-05-25T06:39:30;19.20;21.80
326;DHT22;150;52.352;14.058;2023-05-25T06:41:56;19.00;22.40
326;DHT22;150;52.352;14.058;2023-05-25T06:44:33;19.00;21.60
326;DHT22;150;52.352;14.058;2023-05-25T06:47:20;19.00;21.60
326;DHT22;150;52.352;14.058;2023-05-25T06:53:07;19.30;22.10
326;DHT22;150;52.352;14.058;2023-05-25T06:58:05;19.50;21.20
326;DHT22;150;52.352;14.058;2023-05-25T07:00:33;19.90;21.40
326;DHT22;150;52.352;14.058;2023-05-25T07:03:12;19.90;20.50
326;DHT22;150;52.352;14.058;2023-05-25T07:05:52;20.00;20.80
326;DHT22;150;52.352;14.058;2023-05-25T07:08:35;19.80;20.40
326;DHT22;150;52.352;14.058;2023-05-25T07:11:13;20.00;21.60
326;DHT22;150;52.352;14.058;2023-05-25T07:13:48;20.20;21.40
326;DHT22;150;52.352;14.058;2023-05-25T07:16:16;20.40;20.80
326;DHT22;150;52.352;14.058;2023-05-25T07:18:46;20.50;19.50
326;DHT22;150;52.352;14.058;2023-05-25T07:21:13;20.30;20.20
326;DHT22;150;52.352;14.058;2023-05-25T07:23:44;20.10;19.80
326;DHT22;150;52.352;14.058;2023-05-25T07:26:30;20.40;20.10
326;DHT22;150;52.352;14.058;2023-05-25T07:29:11;20.60;19.80
326;DHT22;150;52.352;14.058;2023-05-25T07:35:30;20.40;19.80
326;DHT22;150;52.352;14.058;2023-05-25T07:38:35;20.50;19.10
326;DHT22;150;52.352;14.058;2023-05-25T07:59:42;20.90;18.50
326;DHT22;150;52.352;14.058;2023-05-25T08:02:52;20.80;17.90
326;DHT22;150;52.352;14.058;2023-05-25T08:08:55;21.10;17.60
326;DHT22;150;52.352;14.058;2023-05-25T08:18:41;21.60;16.10
326;DHT22;150;52.352;14.058;2023-05-25T08:21:19;21.80;15.80
326;DHT22;150;52.352;14.058;2023-05-25T08:24:13;22.00;15.80
326;DHT22;150;52.352;14.058;2023-05-25T08:26:48;22.00;14.90
326;DHT22;150;52.352;14.058;2023-05-25T08:29:36;21.90;15.60
326;DHT22;150;52.352;14.058;2023-05-25T08:32:26;21.80;15.90
326;DHT22;150;52.352;14.058;2023-05-25T08:39:15;22.00;15.50
326;DHT22;150;52.352;14.058;2023-05-25T08:41:45;22.10;14.00
326;DHT22;150;52.352;14.058;2023-05-25T08:44:28;22.10;14.00
326;DHT22;150;52.352;14.058;2023-05-25T08:50:56;22.20;14.10
326;DHT22;150;52.352;14.058;2023-05-25T08:53:39;22.00;13.60
326;DHT22;150;52.352;14.058;2023-05-25T08:56:27;22.10;14.00
326;DHT22;150;52.352;14.058;2023-05-25T08:59:21;22.30;13.20
326;DHT22;150;52.352;14.058;2023-05-25T09:02:12;22.50;12.80
326;DHT22;150;52.352;14.058;2023-05-25T09:21:52;22.40;12.80
326;DHT22;150;52.352;14.058;2023-05-25T09:25:02;22.30;13.10
326;DHT22;150;52.352;14.058;2023-05-25T09:31:10;22.60;14.30
326;DHT22;150;52.352;14.058;2023-05-25T09:33:54;22.80;13.50
326;DHT22;150;52.352;14.058;2023-05-25T09:37:15;22.80;12.40
326;DHT22;150;52.352;14.058;2023-05-25T09:39:50;22.90;12.30
326;DHT22;150;52.352;14.058;2023-05-25T09:42:40;23.10;11.60
326;DHT22;150;52.352;14.058;2023-05-25T09:45:11;23.20;12.50
326;DHT22;150;52.352;14.058;2023-05-25T09:47:48;23.10;11.20
326;DHT22;150;52.352;14.058;2023-05-25T09:50:47;23.00;12.20
326;DHT22;150;52.352;14.058;2023-05-25T09:53:44;22.90;12.10
326;DHT22;150;52.352;14.058;2023-05-25T09:59:40;22.50;11.80
326;DHT22;150;52.352;14.058;2023-05-25T10:02:21;22.50;11.70
326;DHT22;150;52.352;14.058;2023-05-25T10:04:56;22.70;12.30
326;DHT22;150;52.352;14.058;2023-05-25T10:07:39;23.00;10.30
326;DHT22;150;52.352;14.058;2023-05-25T10:10:38;23.20;9.80
326;DHT22;150;52.352;14.058;2023-05-25T10:13:09;23.50;9.80
326;DHT22;150;52.352;14.058;2023-05-25T10:15:44;23.80;9.90
326;DHT22;150;52.352;14.058;2023-05-25T10:18:34;24.20;10.50
326;DHT22;150;52.352;14.058;2023-05-25T10:21:15;23.40;9.60
326;DHT22;150;52.352;14.058;2023-05-25T10:24:58;23.00;10.00
326;DHT22;150;52.352;14.058;2023-05-25T10:28:06;22.30;10.80
326;DHT22;150;52.352;14.058;2023-05-25T10:34:22;22.60;11.10
326;DHT22;150;52.352;14.058;2023-05-25T10:37:02;22.90;11.00
326;DHT22;150;52.352;14.058;2023-05-25T10:39:57;23.20;10.30
326;DHT22;150;52.352;14.058;2023-05-25T10:42:46;23.50;10.50
326;DHT22;150;52.352;14.058;2023-05-25T10:49:26;24.10;8.50
326;DHT22;150;52.352;14.058;2023-05-25T10:52:26;24.50;8.70
326;DHT22;150;52.352;14.058;2023-05-25T10:55:01;24.60;7.90
326;DHT22;150;52.352;14.058;2023-05-25T10:57:34;25.00;7.30
326;DHT22;150;52.352;14.058;2023-05-25T11:00:13;25.20;6.60
326;DHT22;150;52.352;14.058;2023-05-25T11:03:22;25.20;6.60
326;DHT22;150;52.352;14.058;2023-05-25T11:14:19;24.30;8.40
326;DHT22;150;52.352;14.058;2023-05-25T11:40:42;24.80;6.40
326;DHT22;150;52.352;14.058;2023-05-25T12:01:39;25.00;6.50
326;DHT22;150;52.352;14.058;2023-05-25T12:46:43;25.00;6.50
326;DHT22;150;52.352;14.058;2023-05-25T12:49:46;25.30;6.70
326;DHT22;150;52.352;14.058;2023-05-25T12:52:40;25.40;5.60
326;DHT22;150;52.352;14.058;2023-05-25T12:55:41;25.50;5.10
326;DHT22;150;52.352;14.058;2023-05-25T13:01:12;25.70;4.40
326;DHT22;150;52.352;14.058;2023-05-25T13:03:44;25.80;6.30
326;DHT22;150;52.352;14.058;2023-05-25T13:09:28;26.30;5.90
326;DHT22;150;52.352;14.058;2023-05-25T13:12:39;26.40;4.70
326;DHT22;150;52.352;14.058;2023-05-25T13:15:17;26.20;5.50
326;DHT22;150;52.352;14.058;2023-05-25T13:18:11;26.30;5.50
326;DHT22;150;52.352;14.058;2023-05-25T13:21:02;26.40;5.00
326;DHT22;150;52.352;14.058;2023-05-25T13:23:43;26.50;4.90
326;DHT22;150;52.352;14.058;2023-05-25T13:26:21;26.60;4.70
326;DHT22;150;52.352;14.058;2023-05-25T13:29:36;26.70;5.20
326;DHT22;150;52.352;14.058;2023-05-25T13:45:23;25.30;6.70
326;DHT22;150;52.352;14.058;2023-05-25T13:54:21;24.50;8.50
326;DHT22;150;52.352;14.058;2023-05-25T13:57:34;24.30;7.50
326;DHT22;150;52.352;14.058;2023-05-25T14:00:06;24.10;7.90
326;DHT22;150;52.352;14.058;2023-05-25T14:03:19;23.90;7.70
326;DHT22;150;52.352;14.058;2023-05-25T14:06:17;23.80;8.00
326;DHT22;150;52.352;14.058;2023-05-25T14:09:17;23.80;7.60
326;DHT22;150;52.352;14.058;2023-05-25T14:12:16;23.60;8.30
326;DHT22;150;52.352;14.058;2023-05-25T14:14:58;23.90;8.60
326;DHT22;150;52.352;14.058;2023-05-25T14:17:44;23.60;8.50
326;DHT22;150;52.352;14.058;2023-05-25T14:20:19;23.80;7.70
326;DHT22;150;52.352;14.058;2023-05-25T14:23:02;23.90;7.00
326;DHT22;150;52.352;14.058;2023-05-25T14:25:58;24.00;8.00
326;DHT22;150;52.352;14.058;2023-05-25T14:28:55;24.20;6.60
326;DHT22;150;52.352;14.058;2023-05-25T14:31:49;24.50;7.20
326;DHT22;150;52.352;14.058;2023-05-25T14:34:29;24.40;6.30
326;DHT22;150;52.352;14.058;2023-05-25T14:37:31;24.20;7.40
326;DHT22;150;52.352;14.058;2023-05-25T14:40:09;24.10;7.60
326;DHT22;150;52.352;14.058;2023-05-25T14:43:31;23.80;7.80
326;DHT22;150;52.352;14.058;2023-05-25T14:46:50;23.70;8.40
326;DHT22;150;52.352;14.058;2023-05-25T14:52:57;23.50;9.30
326;DHT22;150;52.352;14.058;2023-05-25T14:55:40;23.60;8.80
326;DHT22;150;52.352;14.058;2023-05-25T14:58:17;23.80;9.10
326;DHT22;150;52.352;14.058;2023-05-25T15:01:05;23.80;9.70
326;DHT22;150;52.352;14.058;2023-05-25T15:06:29;24.20;9.00
326;DHT22;150;52.352;14.058;2023-05-25T15:09:20;24.10;8.20
326;DHT22;150;52.352;14.058;2023-05-25T15:11:57;24.10;8.10
326;DHT22;150;52.352;14.058;2023-05-25T15:14:24;23.90;8.90
326;DHT22;150;52.352;14.058;2023-05-25T15:16:55;24.30;9.10
326;DHT22;150;52.352;14.058;2023-05-25T15:19:25;23.70;9.20
326;DHT22;150;52.352;14.058;2023-05-25T15:21:54;23.80;8.30
326;DHT22;150;52.352;14.058;2023-05-25T15:24:53;24.10;8.30
326;DHT22;150;52.352;14.058;2023-05-25T15:33:32;24.20;8.50
326;DHT22;150;52.352;14.058;2023-05-25T15:36:16;24.30;7.50
326;DHT22;150;52.352;14.058;2023-05-25T15:38:46;24.20;8.40
326;DHT22;150;52.352;14.058;2023-05-25T15:41:37;24.20;8.50
326;DHT22;150;52.352;14.058;2023-05-25T15:44:04;24.30;8.70
326;DHT22;150;52.352;14.058;2023-05-25T15:46:38;24.20;9.00
326;DHT22;150;52.352;14.058;2023-05-25T15:49:07;24.10;8.50
326;DHT22;150;52.352;14.058;2023-05-25T15:51:56;23.80;9.10
326;DHT22;150;52.352;14.058;2023-05-25T15:54:40;23.70;9.40
326;DHT22;150;52.352;14.058;2023-05-25T15:57:20;23.60;10.30
326;DHT22;150;52.352;14.058;2023-05-25T15:59:55;23.60;9.90
326;DHT22;150;52.352;14.058;2023-05-25T16:02:22;23.70;10.20
326;DHT22;150;52.352;14.058;2023-05-25T16:04:50;23.60;10.20
326;DHT22;150;52.352;14.058;2023-05-25T16:07:34;23.40;10.60
326;DHT22;150;52.352;14.058;2023-05-25T16:10:01;23.50;10.40
326;DHT22;150;52.352;14.058;2023-05-25T16:12:36;23.50;10.80
326;DHT22;150;52.352;14.058;2023-05-25T16:15:05;23.50;11.30
326;DHT22;150;52.352;14.058;2023-05-25T16:17:41;23.50;11.10
326;DHT22;150;52.352;14.058;2023-05-25T16:20:11;23.50;11.80
326;DHT22;150;52.352;14.058;2023-05-25T16:22:38;23.90;11.60
326;DHT22;150;52.352;14.058;2023-05-25T16:25:09;23.60;11.30
326;DHT22;150;52.352;14.058;2023-05-25T16:27:47;23.60;11.60
326;DHT22;150;52.352;14.058;2023-05-25T16:30:33;23.30;12.60
326;DHT22;150;52.352;14.058;2023-05-25T16:36:02;23.30;13.10
326;DHT22;150;52.352;14.058;2023-05-25T16:38:34;23.00;13.00
326;DHT22;150;52.352;14.058;2023-05-25T16:41:44;22.70;13.30
326;DHT22;150;52.352;14.058;2023-05-25T16:44:38;22.70;14.10
326;DHT22;150;52.352;14.058;2023-05-25T16:47:15;22.70;13.10
326;DHT22;150;52.352;14.058;2023-05-25T16:49:49;22.60;13.20
326;DHT22;150;52.352;14.058;2023-05-25T16:52:37;22.50;13.80
326;DHT22;150;52.352;14.058;2023-05-25T16:55:22;22.40;13.70
326;DHT22;150;52.352;14.058;2023-05-25T16:58:09;22.40;14.10
326;DHT22;150;52.352;14.058;2023-05-25T17:00:58;22.50;14.20
326;DHT22;150;52.352;14.058;2023-05-25T17:03:45;22.40;14.10
326;DHT22;150;52.352;14.058;2023-05-25T17:06:12;22.30;14.80
326;DHT22;150;52.352;14.058;2023-05-25T17:08:42;22.50;15.50
326;DHT22;150;52.352;14.058;2023-05-25T17:11:09;22.30;16.10
326;DHT22;150;52.352;14.058;2023-05-25T17:13:45;22.40;16.00
326;DHT22;150;52.352;14.058;2023-05-25T17:16:14;22.30;16.00
326;DHT22;150;52.352;14.058;2023-05-25T17:18:45;22.30;16.30
326;DHT22;150;52.352;14.058;2023-05-25T17:21:21;22.20;16.30
326;DHT22;150;52.352;14.058;2023-05-25T17:23:54;22.00;16.30
326;DHT22;150;52.352;14.058;2023-05-25T17:26:47;22.00;16.50
326;DHT22;150;52.352;14.058;2023-05-25T17:29:27;21.90;16.00
326;DHT22;150;52.352;14.058;2023-05-25T17:32:13;21.80;16.20
326;DHT22;150;52.352;14.058;2023-05-25T17:46:23;21.60;16.30
326;DHT22;150;52.352;14.058;2023-05-25T17:53:03;21.50;16.30
326;DHT22;150;52.352;14.058;2023-05-25T17:56:26;21.50;15.90
326;DHT22;150;52.352;14.058;2023-05-25T18:03:47;21.30;16.30
326;DHT22;150;52.352;14.058;2023-05-25T18:06:19;21.30;16.10
326;DHT22;150;52.352;14.058;2023-05-25T18:09:26;21.30;16.10
326;DHT22;150;52.352;14.058;2023-05-25T18:11:57;21.30;16.40
326;DHT22;150;52.352;14.058;2023-05-25T18:14:25;21.20;16.50
326;DHT22;150;52.352;14.058;2023-05-25T18:21:37;21.00;15.80
326;DHT22;150;52.352;14.058;2023-05-25T23:20:48;15.40;28.90
